sensor_id;sensor_type;location;lat;lon;timestamp;P1;durP1;ratioP1;P2;durP2;ratioP2
2858;SDS011;1437;53.250;10.406;2022-09-09T00:00:23;27.50;;;12.53;;
2858;SDS011;1437;53.250;10.406;2022-09-09T00:05:42;17.23;;;10.70;;
2858;SDS011;1437;53.250;10.406;2022-09-09T00:08:42;15.53;;;10.40;;
2858;SDS011;1437;53.250;10.406;2022-09-09T00:11:15;17.60;;;12.90;;
2858;SDS011;1437;53.250;10.406;2022-09-09T00:13:48;15.23;;;11.83;;
2858;SDS011;1437;53.250;10.406;2022-09-09T00:16:25;19.53;;;11.03;;
2858;SDS011;1437;53.250;10.406;2022-09-09T00:18:58;15.43;;;10.40;;
2858;SDS011;1437;53.250;10.406;2022-09-09T00:21:36;14.53;;;10.70;;
2858;SDS011;1437;53.250;10.406;2022-09-09T00:24:09;13.77;;;10.70;;
2858;SDS011;1437;53.250;10.406;2022-09-09T00:26:44;14.00;;;10.20;;
2858;SDS011;1437;53.250;10.406;2022-09-09T00:29:20;17.53;;;11.13;;
2858;SDS011;1437;53.250;10.406;2022-09-09T00:31:56;16.20;;;11.10;;
2858;SDS011;1437;53.250;10.406;2022-09-09T00:34:35;15.20;;;11.10;;
2858;SDS011;1437;53.250;10.406;2022-09-09T00:37:13;18.33;;;12.90;;
2858;SDS011;1437;53.250;10.406;2022-09-09T00:39:49;15.00;;;10.90;;
2858;SDS011;1437;53.250;10.406;2022-09-09T00:42:40;18.60;;;11.80;;
2858;SDS011;1437;53.250;10.406;2022-09-09T00:45:15;18.90;;;11.57;;
2858;SDS011;1437;53.250;10.406;2022-09-09T00:47:46;18.60;;;12.53;;
2858;SDS011;1437;53.250;10.406;2022-09-09T00:50:52;20.17;;;13.40;;
2858;SDS011;1437;53.250;10.406;2022-09-09T00:53:51;20.40;;;12.73;;
2858;SDS011;1437;53.250;10.406;2022-09-09T00:56:25;17.60;;;11.67;;
2858;SDS011;1437;53.250;10.406;2022-09-09T00:58:57;19.93;;;12.83;;
2858;SDS011;1437;53.250;10.406;2022-09-09T01:01:27;43.17;;;13.97;;
2858;SDS011;1437;53.250;10.406;2022-09-09T01:03:57;34.30;;;13.60;;
2858;SDS011;1437;53.250;10.406;2022-09-09T01:06:29;29.47;;;12.33;;
2858;SDS011;1437;53.250;10.406;2022-09-09T01:09:10;29.33;;;13.20;;
2858;SDS011;1437;53.250;10.406;2022-09-09T01:11:42;25.90;;;14.17;;
2858;SDS011;1437;53.250;10.406;2022-09-09T01:14:14;29.83;;;14.10;;
2858;SDS011;1437;53.250;10.406;2022-09-09T01:16:46;31.80;;;11.90;;
2858;SDS011;1437;53.250;10.406;2022-09-09T01:19:16;23.90;;;12.40;;
2858;SDS011;1437;53.250;10.406;2022-09-09T01:21:50;23.73;;;13.27;;
2858;SDS011;1437;53.250;10.406;2022-09-09T01:24:22;20.23;;;12.20;;
2858;SDS011;1437;53.250;10.406;2022-09-09T01:26:58;27.63;;;13.27;;
2858;SDS011;1437;53.250;10.406;2022-09-09T01:29:28;21.00;;;13.23;;
2858;SDS011;1437;53.250;10.406;2022-09-09T01:32:00;17.17;;;10.07;;
2858;SDS011;1437;53.250;10.406;2022-09-09T01:34:34;18.10;;;10.83;;
2858;SDS011;1437;53.250;10.406;2022-09-09T01:37:06;17.43;;;11.70;;
2858;SDS011;1437;53.250;10.406;2022-09-09T01:39:34;18.23;;;11.63;;
2858;SDS011;1437;53.250;10.406;2022-09-09T01:42:08;22.83;;;12.07;;
2858;SDS011;1437;53.250;10.406;2022-09-09T01:44:38;21.27;;;11.17;;
2858;SDS011;1437;53.250;10.406;2022-09-09T01:47:05;19.10;;;12.30;;
2858;SDS011;1437;53.250;10.406;2022-09-09T01:49:32;20.47;;;10.80;;
2858;SDS011;1437;53.250;10.406;2022-09-09T01:52:09;13.87;;;10.77;;
2858;SDS011;1437;53.250;10.406;2022-09-09T01:54:36;22.30;;;10.67;;
2858;SDS011;1437;53.250;10.406;2022-09-09T01:57:06;24.90;;;11.37;;
2858;SDS011;1437;53.250;10.406;2022-09-09T02:02:33;15.07;;;9.70;;
2858;SDS011;1437;53.250;10.406;2022-09-09T02:05:12;16.93;;;10.67;;
2858;SDS011;1437;53.250;10.406;2022-09-09T02:07:44;15.57;;;10.07;;
2858;SDS011;1437;53.250;10.406;2022-09-09T02:10:15;14.10;;;9.83;;
2858;SDS011;1437;53.250;10.406;2022-09-09T02:12:43;13.80;;;9.47;;
2858;SDS011;1437;53.250;10.406;2022-09-09T02:15:15;14.87;;;10.67;;
2858;SDS011;1437;53.250;10.406;2022-09-09T02:17:44;15.67;;;10.17;;
2858;SDS011;1437;53.250;10.406;2022-09-09T02:20:13;13.77;;;9.63;;
2858;SDS011;1437;53.250;10.406;2022-09-09T02:22:43;15.63;;;10.57;;
2858;SDS011;1437;53.250;10.406;2022-09-09T02:25:12;15.00;;;9.27;;
2858;SDS011;1437;53.250;10.406;2022-09-09T02:27:40;14.00;;;9.83;;
2858;SDS011;1437;53.250;10.406;2022-09-09T02:30:09;14.20;;;10.13;;
2858;SDS011;1437;53.250;10.406;2022-09-09T02:32:38;15.13;;;9.60;;
2858;SDS011;1437;53.250;10.406;2022-09-09T02:35:14;13.33;;;9.20;;
2858;SDS011;1437;53.250;10.406;2022-09-09T02:37:42;11.90;;;8.90;;
2858;SDS011;1437;53.250;10.406;2022-09-09T02:40:15;16.57;;;9.70;;
2858;SDS011;1437;53.250;10.406;2022-09-09T02:42:43;15.83;;;10.77;;
2858;SDS011;1437;53.250;10.406;2022-09-09T02:45:11;12.47;;;9.80;;
2858;SDS011;1437;53.250;10.406;2022-09-09T02:47:44;13.93;;;9.60;;
2858;SDS011;1437;53.250;10.406;2022-09-09T02:50:15;14.73;;;9.67;;
2858;SDS011;1437;53.250;10.406;2022-09-09T02:52:47;12.97;;;9.43;;
2858;SDS011;1437;53.250;10.406;2022-09-09T02:55:19;13.57;;;9.87;;
2858;SDS011;1437;53.250;10.406;2022-09-09T02:57:47;14.67;;;9.87;;
2858;SDS011;1437;53.250;10.406;2022-09-09T03:00:16;13.43;;;9.33;;
2858;SDS011;1437;53.250;10.406;2022-09-09T03:02:49;14.93;;;9.57;;
2858;SDS011;1437;53.250;10.406;2022-09-09T03:05:18;13.37;;;10.30;;
2858;SDS011;1437;53.250;10.406;2022-09-09T03:07:45;12.17;;;8.80;;
2858;SDS011;1437;53.250;10.406;2022-09-09T03:10:12;13.30;;;8.77;;
2858;SDS011;1437;53.250;10.406;2022-09-09T03:12:40;13.80;;;10.00;;
2858;SDS011;1437;53.250;10.406;2022-09-09T03:15:07;13.20;;;9.70;;
2858;SDS011;1437;53.250;10.406;2022-09-09T03:17:38;14.53;;;10.30;;
2858;SDS011;1437;53.250;10.406;2022-09-09T03:20:05;13.10;;;8.83;;
2858;SDS011;1437;53.250;10.406;2022-09-09T03:22:35;12.80;;;8.50;;
2858;SDS011;1437;53.250;10.406;2022-09-09T03:25:06;13.63;;;9.70;;
2858;SDS011;1437;53.250;10.406;2022-09-09T03:27:33;13.23;;;9.57;;
2858;SDS011;1437;53.250;10.406;2022-09-09T03:30:01;14.37;;;9.40;;
2858;SDS011;1437;53.250;10.406;2022-09-09T03:32:29;15.10;;;8.77;;
2858;SDS011;1437;53.250;10.406;2022-09-09T03:34:56;11.63;;;8.63;;
2858;SDS011;1437;53.250;10.406;2022-09-09T03:37:23;11.70;;;9.00;;
2858;SDS011;1437;53.250;10.406;2022-09-09T03:39:51;15.03;;;8.57;;
2858;SDS011;1437;53.250;10.406;2022-09-09T03:42:23;12.97;;;10.17;;
2858;SDS011;1437;53.250;10.406;2022-09-09T03:44:50;12.40;;;8.90;;
2858;SDS011;1437;53.250;10.406;2022-09-09T03:47:17;12.13;;;8.60;;
2858;SDS011;1437;53.250;10.406;2022-09-09T03:49:47;11.90;;;9.37;;
2858;SDS011;1437;53.250;10.406;2022-09-09T03:52:14;9.73;;;7.80;;
2858;SDS011;1437;53.250;10.406;2022-09-09T03:54:47;13.00;;;8.93;;
2858;SDS011;1437;53.250;10.406;2022-09-09T03:57:15;12.60;;;8.90;;
2858;SDS011;1437;53.250;10.406;2022-09-09T03:59:42;15.70;;;8.70;;
2858;SDS011;1437;53.250;10.406;2022-09-09T04:02:09;10.77;;;7.57;;
2858;SDS011;1437;53.250;10.406;2022-09-09T04:04:36;13.07;;;9.47;;
2858;SDS011;1437;53.250;10.406;2022-09-09T04:07:06;10.37;;;8.50;;
2858;SDS011;1437;53.250;10.406;2022-09-09T04:09:33;10.40;;;7.83;;
2858;SDS011;1437;53.250;10.406;2022-09-09T04:12:01;10.67;;;7.20;;
2858;SDS011;1437;53.250;10.406;2022-09-09T04:14:29;10.77;;;8.40;;
2858;SDS011;1437;53.250;10.406;2022-09-09T04:16:56;11.30;;;8.60;;
2858;SDS011;1437;53.250;10.406;2022-09-09T04:19:25;12.37;;;8.93;;
2858;SDS011;1437;53.250;10.406;2022-09-09T04:21:52;10.77;;;6.70;;
2858;SDS011;1437;53.250;10.406;2022-09-09T04:24:19;10.63;;;8.03;;
2858;SDS011;1437;53.250;10.406;2022-09-09T04:26:46;9.90;;;7.30;;
2858;SDS011;1437;53.250;10.406;2022-09-09T04:29:14;9.70;;;8.20;;
2858;SDS011;1437;53.250;10.406;2022-09-09T04:31:44;9.40;;;6.93;;
2858;SDS011;1437;53.250;10.406;2022-09-09T04:34:11;11.43;;;8.00;;
2858;SDS011;1437;53.250;10.406;2022-09-09T04:36:38;9.30;;;6.77;;
2858;SDS011;1437;53.250;10.406;2022-09-09T04:39:06;8.93;;;7.47;;
2858;SDS011;1437;53.250;10.406;2022-09-09T04:41:33;10.00;;;7.43;;
2858;SDS011;1437;53.250;10.406;2022-09-09T04:44:03;10.03;;;6.97;;
2858;SDS011;1437;53.250;10.406;2022-09-09T04:46:30;9.17;;;6.40;;
2858;SDS011;1437;53.250;10.406;2022-09-09T04:49:00;9.63;;;7.63;;
2858;SDS011;1437;53.250;10.406;2022-09-09T04:51:28;7.50;;;5.90;;
2858;SDS011;1437;53.250;10.406;2022-09-09T04:53:56;10.97;;;6.03;;
2858;SDS011;1437;53.250;10.406;2022-09-09T04:56:23;9.30;;;7.20;;
2858;SDS011;1437;53.250;10.406;2022-09-09T04:58:53;7.50;;;6.50;;
2858;SDS011;1437;53.250;10.406;2022-09-09T05:01:23;9.67;;;6.43;;
2858;SDS011;1437;53.250;10.406;2022-09-09T05:03:51;8.80;;;6.30;;
2858;SDS011;1437;53.250;10.406;2022-09-09T05:06:20;10.47;;;6.17;;
2858;SDS011;1437;53.250;10.406;2022-09-09T05:08:48;8.73;;;6.77;;
2858;SDS011;1437;53.250;10.406;2022-09-09T05:11:16;6.43;;;5.40;;
2858;SDS011;1437;53.250;10.406;2022-09-09T05:13:44;6.60;;;5.87;;
2858;SDS011;1437;53.250;10.406;2022-09-09T05:16:12;7.70;;;5.77;;
2858;SDS011;1437;53.250;10.406;2022-09-09T05:18:40;7.57;;;5.67;;
2858;SDS011;1437;53.250;10.406;2022-09-09T05:21:11;7.33;;;5.67;;
2858;SDS011;1437;53.250;10.406;2022-09-09T05:23:44;7.70;;;6.30;;
2858;SDS011;1437;53.250;10.406;2022-09-09T05:26:13;7.47;;;5.80;;
2858;SDS011;1437;53.250;10.406;2022-09-09T05:28:44;7.37;;;4.73;;
2858;SDS011;1437;53.250;10.406;2022-09-09T05:31:13;5.53;;;4.23;;
2858;SDS011;1437;53.250;10.406;2022-09-09T05:33:42;7.33;;;4.97;;
2858;SDS011;1437;53.250;10.406;2022-09-09T05:36:17;8.13;;;5.47;;
2858;SDS011;1437;53.250;10.406;2022-09-09T05:38:51;5.80;;;4.90;;
2858;SDS011;1437;53.250;10.406;2022-09-09T05:43:57;5.27;;;4.40;;
2858;SDS011;1437;53.250;10.406;2022-09-09T05:46:26;7.10;;;4.73;;
2858;SDS011;1437;53.250;10.406;2022-09-09T05:48:59;8.03;;;5.33;;
2858;SDS011;1437;53.250;10.406;2022-09-09T05:51:27;5.50;;;4.27;;
2858;SDS011;1437;53.250;10.406;2022-09-09T05:53:56;7.23;;;4.07;;
2858;SDS011;1437;53.250;10.406;2022-09-09T05:56:29;5.07;;;3.60;;
2858;SDS011;1437;53.250;10.406;2022-09-09T05:58:58;4.90;;;4.13;;
2858;SDS011;1437;53.250;10.406;2022-09-09T06:01:29;7.53;;;3.60;;
2858;SDS011;1437;53.250;10.406;2022-09-09T06:03:58;5.87;;;4.13;;
2858;SDS011;1437;53.250;10.406;2022-09-09T06:06:26;7.43;;;4.27;;
2858;SDS011;1437;53.250;10.406;2022-09-09T06:09:00;4.40;;;3.33;;
2858;SDS011;1437;53.250;10.406;2022-09-09T06:11:39;4.90;;;3.50;;
2858;SDS011;1437;53.250;10.406;2022-09-09T06:14:08;5.50;;;3.10;;
2858;SDS011;1437;53.250;10.406;2022-09-09T06:16:52;3.53;;;2.97;;
2858;SDS011;1437;53.250;10.406;2022-09-09T06:19:23;7.57;;;3.20;;
2858;SDS011;1437;53.250;10.406;2022-09-09T06:22:04;5.17;;;2.90;;
2858;SDS011;1437;53.250;10.406;2022-09-09T06:24:39;4.93;;;3.00;;
2858;SDS011;1437;53.250;10.406;2022-09-09T06:27:17;4.03;;;2.63;;
2858;SDS011;1437;53.250;10.406;2022-09-09T06:29:50;4.67;;;2.80;;
2858;SDS011;1437;53.250;10.406;2022-09-09T06:35:37;4.97;;;3.80;;
2858;SDS011;1437;53.250;10.406;2022-09-09T06:38:08;4.50;;;2.73;;
2858;SDS011;1437;53.250;10.406;2022-09-09T06:40:43;3.10;;;2.30;;
2858;SDS011;1437;53.250;10.406;2022-09-09T06:43:35;4.30;;;2.90;;
2858;SDS011;1437;53.250;10.406;2022-09-09T06:46:04;5.83;;;3.87;;
2858;SDS011;1437;53.250;10.406;2022-09-09T06:48:38;7.03;;;3.00;;
2858;SDS011;1437;53.250;10.406;2022-09-09T06:51:14;3.37;;;2.87;;
2858;SDS011;1437;53.250;10.406;2022-09-09T06:53:51;8.00;;;4.57;;
2858;SDS011;1437;53.250;10.406;2022-09-09T06:59:20;3.67;;;2.73;;
2858;SDS011;1437;53.250;10.406;2022-09-09T07:01:51;4.23;;;3.27;;
2858;SDS011;1437;53.250;10.406;2022-09-09T07:04:20;11.83;;;2.70;;
2858;SDS011;1437;53.250;10.406;2022-09-09T07:06:53;6.23;;;2.90;;
2858;SDS011;1437;53.250;10.406;2022-09-09T07:09:27;4.70;;;2.73;;
2858;SDS011;1437;53.250;10.406;2022-09-09T07:11:57;3.37;;;2.83;;
2858;SDS011;1437;53.250;10.406;2022-09-09T07:14:25;5.50;;;2.80;;
2858;SDS011;1437;53.250;10.406;2022-09-09T07:16:56;4.50;;;2.77;;
2858;SDS011;1437;53.250;10.406;2022-09-09T07:19:25;4.57;;;3.40;;
2858;SDS011;1437;53.250;10.406;2022-09-09T07:22:15;5.73;;;2.23;;
2858;SDS011;1437;53.250;10.406;2022-09-09T07:24:46;4.93;;;2.40;;
2858;SDS011;1437;53.250;10.406;2022-09-09T07:27:15;4.20;;;2.37;;
2858;SDS011;1437;53.250;10.406;2022-09-09T07:29:46;10.23;;;3.53;;
2858;SDS011;1437;53.250;10.406;2022-09-09T07:32:14;4.70;;;2.80;;
2858;SDS011;1437;53.250;10.406;2022-09-09T07:34:49;4.47;;;2.53;;
2858;SDS011;1437;53.250;10.406;2022-09-09T07:40:12;7.30;;;2.83;;
2858;SDS011;1437;53.250;10.406;2022-09-09T07:42:49;5.10;;;2.20;;
2858;SDS011;1437;53.250;10.406;2022-09-09T07:45:21;6.10;;;2.60;;
2858;SDS011;1437;53.250;10.406;2022-09-09T07:47:48;4.30;;;2.47;;
2858;SDS011;1437;53.250;10.406;2022-09-09T07:50:22;4.60;;;2.63;;
2858;SDS011;1437;53.250;10.406;2022-09-09T07:53:07;7.20;;;2.20;;
2858;SDS011;1437;53.250;10.406;2022-09-09T07:55:41;7.90;;;2.50;;
2858;SDS011;1437;53.250;10.406;2022-09-09T07:58:12;4.30;;;2.13;;
2858;SDS011;1437;53.250;10.406;2022-09-09T08:00:44;4.60;;;2.90;;
2858;SDS011;1437;53.250;10.406;2022-09-09T08:03:23;4.80;;;2.93;;
2858;SDS011;1437;53.250;10.406;2022-09-09T08:05:59;5.73;;;2.13;;
2858;SDS011;1437;53.250;10.406;2022-09-09T08:08:29;4.63;;;2.20;;
2858;SDS011;1437;53.250;10.406;2022-09-09T08:11:05;3.50;;;2.30;;
2858;SDS011;1437;53.250;10.406;2022-09-09T08:13:34;4.10;;;2.27;;
2858;SDS011;1437;53.250;10.406;2022-09-09T08:18:53;3.03;;;2.20;;
2858;SDS011;1437;53.250;10.406;2022-09-09T08:21:22;5.43;;;3.20;;
2858;SDS011;1437;53.250;10.406;2022-09-09T08:23:56;4.33;;;2.00;;
2858;SDS011;1437;53.250;10.406;2022-09-09T08:27:13;4.37;;;2.10;;
2858;SDS011;1437;53.250;10.406;2022-09-09T08:29:40;5.50;;;2.10;;
2858;SDS011;1437;53.250;10.406;2022-09-09T08:32:10;8.40;;;2.77;;
2858;SDS011;1437;53.250;10.406;2022-09-09T08:34:38;5.53;;;2.10;;
2858;SDS011;1437;53.250;10.406;2022-09-09T08:37:16;10.13;;;3.57;;
2858;SDS011;1437;53.250;10.406;2022-09-09T08:40:21;4.90;;;2.40;;
2858;SDS011;1437;53.250;10.406;2022-09-09T08:42:51;5.07;;;2.33;;
2858;SDS011;1437;53.250;10.406;2022-09-09T08:48:32;8.63;;;2.97;;
2858;SDS011;1437;53.250;10.406;2022-09-09T08:51:29;6.50;;;2.10;;
2858;SDS011;1437;53.250;10.406;2022-09-09T08:54:03;3.20;;;1.93;;
2858;SDS011;1437;53.250;10.406;2022-09-09T08:56:35;6.10;;;2.27;;
2858;SDS011;1437;53.250;10.406;2022-09-09T08:59:07;3.83;;;2.50;;
2858;SDS011;1437;53.250;10.406;2022-09-09T09:02:03;4.13;;;3.03;;
2858;SDS011;1437;53.250;10.406;2022-09-09T09:04:45;3.70;;;2.07;;
2858;SDS011;1437;53.250;10.406;2022-09-09T09:07:30;4.27;;;2.20;;
2858;SDS011;1437;53.250;10.406;2022-09-09T09:10:11;3.40;;;1.73;;
2858;SDS011;1437;53.250;10.406;2022-09-09T09:12:43;3.33;;;2.27;;
2858;SDS011;1437;53.250;10.406;2022-09-09T09:15:16;2.97;;;2.10;;
2858;SDS011;1437;53.250;10.406;2022-09-09T09:17:50;4.80;;;2.27;;
2858;SDS011;1437;53.250;10.406;2022-09-09T09:20:21;4.00;;;2.77;;
2858;SDS011;1437;53.250;10.406;2022-09-09T09:22:51;3.97;;;2.30;;
2858;SDS011;1437;53.250;10.406;2022-09-09T09:26:14;8.20;;;2.20;;
2858;SDS011;1437;53.250;10.406;2022-09-09T09:28:56;5.87;;;2.00;;
2858;SDS011;1437;53.250;10.406;2022-09-09T09:31:50;6.97;;;2.10;;
2858;SDS011;1437;53.250;10.406;2022-09-09T09:34:38;5.10;;;1.73;;
2858;SDS011;1437;53.250;10.406;2022-09-09T09:40:17;3.47;;;2.07;;
2858;SDS011;1437;53.250;10.406;2022-09-09T09:43:03;7.33;;;2.10;;
2858;SDS011;1437;53.250;10.406;2022-09-09T09:45:42;4.10;;;2.37;;
2858;SDS011;1437;53.250;10.406;2022-09-09T09:53:41;2.73;;;1.70;;
2858;SDS011;1437;53.250;10.406;2022-09-09T09:55:11;4.63;;;1.97;;
2858;SDS011;1437;53.250;10.406;2022-09-09T09:58:13;3.77;;;1.77;;
2858;SDS011;1437;53.250;10.406;2022-09-09T10:00:51;3.40;;;2.00;;
2858;SDS011;1437;53.250;10.406;2022-09-09T10:03:35;8.93;;;3.60;;
2858;SDS011;1437;53.250;10.406;2022-09-09T10:09:57;5.73;;;1.63;;
2858;SDS011;1437;53.250;10.406;2022-09-09T10:12:35;5.53;;;3.40;;
2858;SDS011;1437;53.250;10.406;2022-09-09T10:15:34;3.30;;;1.70;;
2858;SDS011;1437;53.250;10.406;2022-09-09T10:18:11;3.97;;;2.50;;
2858;SDS011;1437;53.250;10.406;2022-09-09T10:20:42;3.90;;;2.07;;
2858;SDS011;1437;53.250;10.406;2022-09-09T10:23:24;6.07;;;1.90;;
2858;SDS011;1437;53.250;10.406;2022-09-09T10:26:17;5.13;;;1.37;;
2858;SDS011;1437;53.250;10.406;2022-09-09T10:32:05;3.07;;;1.90;;
2858;SDS011;1437;53.250;10.406;2022-09-09T10:40:43;5.57;;;2.00;;
2858;SDS011;1437;53.250;10.406;2022-09-09T10:46:31;4.77;;;1.70;;
2858;SDS011;1437;53.250;10.406;2022-09-09T11:07:47;4.00;;;1.30;;
2858;SDS011;1437;53.250;10.406;2022-09-09T11:13:40;4.70;;;2.30;;
2858;SDS011;1437;53.250;10.406;2022-09-09T11:19:26;6.83;;;2.40;;
2858;SDS011;1437;53.250;10.406;2022-09-09T11:22:00;3.60;;;2.40;;
2858;SDS011;1437;53.250;10.406;2022-09-09T11:24:37;4.37;;;2.20;;
2858;SDS011;1437;53.250;10.406;2022-09-09T11:27:17;2.20;;;1.37;;
2858;SDS011;1437;53.250;10.406;2022-09-09T11:30:02;3.77;;;1.47;;
2858;SDS011;1437;53.250;10.406;2022-09-09T11:35:43;2.50;;;1.23;;
2858;SDS011;1437;53.250;10.406;2022-09-09T11:38:18;3.23;;;1.10;;
2858;SDS011;1437;53.250;10.406;2022-09-09T11:41:16;4.53;;;1.73;;
2858;SDS011;1437;53.250;10.406;2022-09-09T11:43:50;3.37;;;1.27;;
2858;SDS011;1437;53.250;10.406;2022-09-09T11:46:34;5.40;;;1.60;;
2858;SDS011;1437;53.250;10.406;2022-09-09T11:49:39;11.07;;;7.77;;
2858;SDS011;1437;53.250;10.406;2022-09-09T11:52:35;11.00;;;3.53;;
2858;SDS011;1437;53.250;10.406;2022-09-09T11:57:48;5.53;;;2.67;;
2858;SDS011;1437;53.250;10.406;2022-09-09T12:00:36;2.70;;;1.50;;
2858;SDS011;1437;53.250;10.406;2022-09-09T12:03:08;4.03;;;1.90;;
2858;SDS011;1437;53.250;10.406;2022-09-09T12:06:08;5.73;;;2.70;;
2858;SDS011;1437;53.250;10.406;2022-09-09T12:08:43;3.43;;;1.97;;
2858;SDS011;1437;53.250;10.406;2022-09-09T12:11:32;14.27;;;2.17;;
2858;SDS011;1437;53.250;10.406;2022-09-09T12:14:04;4.70;;;2.17;;
2858;SDS011;1437;53.250;10.406;2022-09-09T12:16:37;3.30;;;2.37;;
2858;SDS011;1437;53.250;10.406;2022-09-09T12:19:06;5.33;;;2.77;;
2858;SDS011;1437;53.250;10.406;2022-09-09T12:21:41;4.93;;;2.67;;
2858;SDS011;1437;53.250;10.406;2022-09-09T12:24:11;7.47;;;2.40;;
2858;SDS011;1437;53.250;10.406;2022-09-09T12:26:41;4.70;;;2.40;;
2858;SDS011;1437;53.250;10.406;2022-09-09T12:29:25;3.90;;;2.10;;
2858;SDS011;1437;53.250;10.406;2022-09-09T12:32:00;4.30;;;1.83;;
2858;SDS011;1437;53.250;10.406;2022-09-09T12:34:41;4.77;;;2.00;;
2858;SDS011;1437;53.250;10.406;2022-09-09T12:37:15;4.47;;;1.90;;
2858;SDS011;1437;53.250;10.406;2022-09-09T12:40:18;3.20;;;2.10;;
2858;SDS011;1437;53.250;10.406;2022-09-09T12:42:49;38.90;;;24.93;;
2858;SDS011;1437;53.250;10.406;2022-09-09T12:45:36;9.93;;;5.50;;
2858;SDS011;1437;53.250;10.406;2022-09-09T12:48:32;5.40;;;3.30;;
2858;SDS011;1437;53.250;10.406;2022-09-09T12:51:23;7.93;;;2.40;;
2858;SDS011;1437;53.250;10.406;2022-09-09T12:53:58;6.40;;;1.90;;
2858;SDS011;1437;53.250;10.406;2022-09-09T12:56:33;5.07;;;2.60;;
2858;SDS011;1437;53.250;10.406;2022-09-09T12:59:36;4.17;;;2.70;;
2858;SDS011;1437;53.250;10.406;2022-09-09T13:02:44;4.60;;;1.90;;
2858;SDS011;1437;53.250;10.406;2022-09-09T13:06:24;3.17;;;1.53;;
2858;SDS011;1437;53.250;10.406;2022-09-09T13:08:57;3.83;;;1.80;;
2858;SDS011;1437;53.250;10.406;2022-09-09T13:11:52;3.93;;;1.37;;
2858;SDS011;1437;53.250;10.406;2022-09-09T13:17:24;4.47;;;1.83;;
2858;SDS011;1437;53.250;10.406;2022-09-09T13:20:16;5.63;;;2.00;;
2858;SDS011;1437;53.250;10.406;2022-09-09T13:23:00;6.97;;;1.57;;
2858;SDS011;1437;53.250;10.406;2022-09-09T13:26:00;5.30;;;2.40;;
2858;SDS011;1437;53.250;10.406;2022-09-09T13:28:38;7.23;;;2.73;;
2858;SDS011;1437;53.250;10.406;2022-09-09T13:34:26;5.57;;;2.70;;
2858;SDS011;1437;53.250;10.406;2022-09-09T13:37:16;8.07;;;3.17;;
2858;SDS011;1437;53.250;10.406;2022-09-09T13:39:54;4.00;;;2.40;;
2858;SDS011;1437;53.250;10.406;2022-09-09T13:42:24;4.67;;;1.87;;
2858;SDS011;1437;53.250;10.406;2022-09-09T13:44:54;5.47;;;2.60;;
2858;SDS011;1437;53.250;10.406;2022-09-09T13:47:27;4.77;;;1.73;;
2858;SDS011;1437;53.250;10.406;2022-09-09T13:49:56;4.30;;;2.27;;
2858;SDS011;1437;53.250;10.406;2022-09-09T13:52:29;4.20;;;2.40;;
2858;SDS011;1437;53.250;10.406;2022-09-09T13:54:57;3.20;;;1.70;;
2858;SDS011;1437;53.250;10.406;2022-09-09T13:57:24;2.23;;;1.73;;
2858;SDS011;1437;53.250;10.406;2022-09-09T13:59:53;3.53;;;2.10;;
2858;SDS011;1437;53.250;10.406;2022-09-09T14:02:24;2.87;;;2.03;;
2858;SDS011;1437;53.250;10.406;2022-09-09T14:04:56;2.87;;;1.37;;
2858;SDS011;1437;53.250;10.406;2022-09-09T14:07:25;3.30;;;1.10;;
2858;SDS011;1437;53.250;10.406;2022-09-09T14:10:00;4.50;;;1.40;;
2858;SDS011;1437;53.250;10.406;2022-09-09T14:12:36;2.87;;;1.00;;
2858;SDS011;1437;53.250;10.406;2022-09-09T14:15:09;4.17;;;2.07;;
2858;SDS011;1437;53.250;10.406;2022-09-09T14:17:49;4.37;;;2.43;;
2858;SDS011;1437;53.250;10.406;2022-09-09T14:20:19;3.20;;;1.30;;
2858;SDS011;1437;53.250;10.406;2022-09-09T14:22:49;9.60;;;1.60;;
2858;SDS011;1437;53.250;10.406;2022-09-09T14:25:25;5.00;;;1.27;;
2858;SDS011;1437;53.250;10.406;2022-09-09T14:27:52;3.00;;;1.73;;
2858;SDS011;1437;53.250;10.406;2022-09-09T14:30:25;4.73;;;1.40;;
2858;SDS011;1437;53.250;10.406;2022-09-09T14:32:53;2.43;;;0.80;;
2858;SDS011;1437;53.250;10.406;2022-09-09T14:35:20;12.67;;;11.20;;
2858;SDS011;1437;53.250;10.406;2022-09-09T14:37:51;6.20;;;1.30;;
2858;SDS011;1437;53.250;10.406;2022-09-09T14:40:20;3.07;;;0.90;;
2858;SDS011;1437;53.250;10.406;2022-09-09T14:43:01;7.70;;;2.53;;
2858;SDS011;1437;53.250;10.406;2022-09-09T14:45:42;2.43;;;1.63;;
2858;SDS011;1437;53.250;10.406;2022-09-09T14:48:14;2.27;;;1.33;;
2858;SDS011;1437;53.250;10.406;2022-09-09T14:50:43;2.07;;;0.80;;
2858;SDS011;1437;53.250;10.406;2022-09-09T14:53:16;3.10;;;1.57;;
2858;SDS011;1437;53.250;10.406;2022-09-09T14:55:49;3.00;;;1.27;;
2858;SDS011;1437;53.250;10.406;2022-09-09T14:58:18;4.30;;;1.70;;
2858;SDS011;1437;53.250;10.406;2022-09-09T15:00:49;3.87;;;1.70;;
2858;SDS011;1437;53.250;10.406;2022-09-09T15:03:16;4.57;;;2.00;;
2858;SDS011;1437;53.250;10.406;2022-09-09T15:05:46;11.60;;;6.97;;
2858;SDS011;1437;53.250;10.406;2022-09-09T15:08:15;4.60;;;2.97;;
2858;SDS011;1437;53.250;10.406;2022-09-09T15:10:46;7.73;;;1.93;;
2858;SDS011;1437;53.250;10.406;2022-09-09T15:13:25;2.37;;;1.33;;
2858;SDS011;1437;53.250;10.406;2022-09-09T15:15:53;2.40;;;1.47;;
2858;SDS011;1437;53.250;10.406;2022-09-09T15:18:23;5.90;;;2.00;;
2858;SDS011;1437;53.250;10.406;2022-09-09T15:20:50;2.90;;;1.93;;
2858;SDS011;1437;53.250;10.406;2022-09-09T15:23:18;3.30;;;2.20;;
2858;SDS011;1437;53.250;10.406;2022-09-09T15:25:52;3.73;;;1.87;;
2858;SDS011;1437;53.250;10.406;2022-09-09T15:28:22;3.60;;;1.80;;
2858;SDS011;1437;53.250;10.406;2022-09-09T15:31:12;3.90;;;2.03;;
2858;SDS011;1437;53.250;10.406;2022-09-09T15:33:49;4.40;;;2.10;;
2858;SDS011;1437;53.250;10.406;2022-09-09T15:36:28;3.40;;;1.40;;
2858;SDS011;1437;53.250;10.406;2022-09-09T15:38:55;3.37;;;2.80;;
2858;SDS011;1437;53.250;10.406;2022-09-09T15:41:29;4.30;;;2.20;;
2858;SDS011;1437;53.250;10.406;2022-09-09T15:44:00;4.10;;;1.70;;
2858;SDS011;1437;53.250;10.406;2022-09-09T15:46:44;3.40;;;2.10;;
2858;SDS011;1437;53.250;10.406;2022-09-09T15:49:13;3.27;;;2.00;;
2858;SDS011;1437;53.250;10.406;2022-09-09T15:51:53;4.30;;;3.03;;
2858;SDS011;1437;53.250;10.406;2022-09-09T15:54:35;6.10;;;2.80;;
2858;SDS011;1437;53.250;10.406;2022-09-09T15:57:12;7.13;;;3.70;;
2858;SDS011;1437;53.250;10.406;2022-09-09T15:59:44;3.53;;;2.47;;
2858;SDS011;1437;53.250;10.406;2022-09-09T16:02:16;5.57;;;2.83;;
2858;SDS011;1437;53.250;10.406;2022-09-09T16:04:46;9.17;;;3.73;;
2858;SDS011;1437;53.250;10.406;2022-09-09T16:07:13;5.50;;;2.40;;
2858;SDS011;1437;53.250;10.406;2022-09-09T16:09:43;5.07;;;2.90;;
2858;SDS011;1437;53.250;10.406;2022-09-09T16:12:12;4.00;;;2.47;;
2858;SDS011;1437;53.250;10.406;2022-09-09T16:14:49;8.60;;;4.20;;
2858;SDS011;1437;53.250;10.406;2022-09-09T16:17:29;5.77;;;3.13;;
2858;SDS011;1437;53.250;10.406;2022-09-09T16:20:03;5.57;;;2.90;;
2858;SDS011;1437;53.250;10.406;2022-09-09T16:22:34;8.73;;;5.70;;
2858;SDS011;1437;53.250;10.406;2022-09-09T16:25:24;12.43;;;6.93;;
2858;SDS011;1437;53.250;10.406;2022-09-09T16:28:03;6.80;;;4.60;;
2858;SDS011;1437;53.250;10.406;2022-09-09T16:30:36;6.97;;;3.90;;
2858;SDS011;1437;53.250;10.406;2022-09-09T16:33:07;8.17;;;3.53;;
2858;SDS011;1437;53.250;10.406;2022-09-09T16:35:41;4.53;;;2.83;;
2858;SDS011;1437;53.250;10.406;2022-09-09T16:38:09;6.03;;;2.53;;
2858;SDS011;1437;53.250;10.406;2022-09-09T16:40:47;11.13;;;6.67;;
2858;SDS011;1437;53.250;10.406;2022-09-09T16:43:33;3.03;;;2.40;;
2858;SDS011;1437;53.250;10.406;2022-09-09T16:46:19;6.97;;;2.70;;
2858;SDS011;1437;53.250;10.406;2022-09-09T16:48:53;7.97;;;3.40;;
2858;SDS011;1437;53.250;10.406;2022-09-09T16:51:23;6.87;;;2.97;;
2858;SDS011;1437;53.250;10.406;2022-09-09T16:54:16;14.00;;;5.47;;
2858;SDS011;1437;53.250;10.406;2022-09-09T16:56:45;6.03;;;3.80;;
2858;SDS011;1437;53.250;10.406;2022-09-09T16:59:17;7.63;;;4.13;;
2858;SDS011;1437;53.250;10.406;2022-09-09T17:01:53;5.37;;;3.07;;
2858;SDS011;1437;53.250;10.406;2022-09-09T17:04:25;7.47;;;3.97;;